Time;durP1;ratioP1;P1;durP2;ratioP2;P2;SDS_P1;SDS_P2;PMS_P1;PMS_P2;Temp;Humidity;BMP_temperature;BMP_pressure;BME280_temperature;BME280_humidity;BME280_pressure;Samples;Min_cycle;Max_cycle;Signal;HPM_P1;HPM_P2
2022/04/16 00:00:52;;;;;;;2.57;2.20;;;;;;;3.07;100.00;102152.53;5011678;28;20205;-70
2022/04/16 00:03:21;;;;;;;2.97;2.43;;;;;;;3.05;100.00;102146.47;5014587;28;20759;-70
2022/04/16 00:05:50;;;;;;;4.03;2.83;;;;;;;3.03;100.00;102153.28;5009329;28;20297;-70
2022/04/16 00:08:16;;;;;;;5.40;3.10;;;;;;;3.00;100.00;102154.06;5010489;28;20283;-72
2022/04/16 00:10:43;;;;;;;3.70;2.40;;;;;;;2.99;100.00;102154.00;5008606;28;20199;-71
2022/04/16 00:13:09;;;;;;;3.07;2.37;;;;;;;2.97;100.00;102164.28;5010087;28;20224;-70
2022/04/16 00:15:36;;;;;;;3.33;2.23;;;;;;;2.99;100.00;102156.56;5018351;28;20213;-70
2022/04/16 00:18:03;;;;;;;4.40;2.60;;;;;;;2.98;100.00;102166.03;5020024;28;20200;-71
2022/04/16 00:20:29;;;;;;;3.00;2.37;;;;;;;2.96;100.00;102169.41;5010197;28;20209;-70
2022/04/16 00:22:57;;;;;;;5.43;2.67;;;;;;;2.94;100.00;102168.47;5007035;28;20255;-70
2022/04/16 00:25:24;;;;;;;4.17;2.67;;;;;;;2.90;100.00;102171.78;5009878;28;20201;-71
2022/04/16 00:27:50;;;;;;;4.17;2.33;;;;;;;2.92;100.00;102172.69;5010835;28;20204;-71
2022/04/16 00:30:17;;;;;;;5.00;2.60;;;;;;;2.91;100.00;102178.69;5016343;28;20202;-71
2022/04/16 00:32:44;;;;;;;3.20;2.50;;;;;;;2.91;100.00;102178.69;5014832;28;20217;-70
2022/04/16 00:35:13;;;;;;;5.97;3.00;;;;;;;2.91;100.00;102176.13;5015190;28;20220;-70
2022/04/16 00:37:40;;;;;;;4.20;2.57;;;;;;;2.88;100.00;102187.19;5014119;28;20196;-72
2022/04/16 00:40:09;;;;;;;4.90;2.37;;;;;;;2.89;100.00;102183.78;5016175;28;20197;-70
2022/04/16 00:42:39;;;;;;;5.20;2.70;;;;;;;2.87;100.00;102185.44;5010020;28;20213;-71
2022/04/16 00:45:07;;;;;;;2.93;2.10;;;;;;;2.91;100.00;102186.41;5015173;28;20207;-70
2022/04/16 00:47:33;;;;;;;6.10;2.53;;;;;;;2.86;100.00;102187.97;5010537;28;20804;-70
2022/04/16 00:50:00;;;;;;;2.80;2.07;;;;;;;2.86;100.00;102190.56;5009953;28;20200;-70
2022/04/16 00:52:27;;;;;;;3.73;2.03;;;;;;;2.75;100.00;102193.66;5009218;28;20192;-72
2022/04/16 00:54:56;;;;;;;2.90;2.27;;;;;;;2.75;100.00;102192.81;5010066;28;20208;-71
2022/04/16 00:57:24;;;;;;;4.67;1.83;;;;;;;2.70;100.00;102192.66;5007010;28;20539;-70
2022/04/16 00:59:50;;;;;;;3.50;1.90;;;;;;;2.64;100.00;102187.31;5009983;28;20205;-71
2022/04/16 01:02:17;;;;;;;3.00;1.97;;;;;;;2.61;100.00;102189.78;5016475;28;20209;-70
2022/04/16 01:04:44;;;;;;;2.70;1.87;;;;;;;2.56;100.00;102197.34;5008251;28;20343;-70
2022/04/16 01:07:10;;;;;;;3.70;1.80;;;;;;;2.53;100.00;102192.09;5009269;28;20322;-71
2022/04/16 01:09:36;;;;;;;2.70;2.10;;;;;;;2.51;100.00;102196.34;5015964;28;20208;-70
2022/04/16 01:12:03;;;;;;;3.30;2.20;;;;;;;2.45;100.00;102193.59;5012771;28;20204;-70
2022/04/16 01:14:32;;;;;;;3.10;2.10;;;;;;;2.40;100.00;102203.72;5009337;28;20228;-71
2022/04/16 01:16:59;;;;;;;3.43;2.10;;;;;;;2.36;100.00;102208.72;5007298;28;20202;-70
2022/04/16 01:19:25;;;;;;;4.53;2.23;;;;;;;2.34;100.00;102208.69;5007225;28;20205;-70
2022/04/16 01:21:52;;;;;;;5.33;1.70;;;;;;;2.26;100.00;102217.84;5008933;28;21216;-71
2022/04/16 01:24:19;;;;;;;3.13;2.03;;;;;;;2.20;100.00;102215.94;5012141;28;20220;-71
2022/04/16 01:26:46;;;;;;;3.43;2.00;;;;;;;2.20;100.00;102217.63;5015576;28;20223;-70
2022/04/16 01:29:13;;;;;;;2.97;1.70;;;;;;;2.20;100.00;102220.19;5007684;28;20748;-70
2022/04/16 01:31:39;;;;;;;2.97;1.70;;;;;;;2.11;100.00;102219.88;5006341;28;20204;-71
2022/04/16 01:34:06;;;;;;;3.57;1.87;;;;;;;2.10;100.00;102223.31;5008428;28;20589;-70
2022/04/16 01:36:34;;;;;;;3.13;1.83;;;;;;;2.03;100.00;102223.06;5008202;28;20201;-70
2022/04/16 01:39:01;;;;;;;3.37;1.57;;;;;;;2.02;100.00;102229.06;5014981;28;20216;-70
2022/04/16 01:41:29;;;;;;;3.27;1.83;;;;;;;2.01;100.00;102229.88;5003541;28;20197;-70
2022/04/16 01:43:56;;;;;;;4.70;1.80;;;;;;;1.98;100.00;102236.59;5009445;28;20239;-71
2022/04/16 01:46:22;;;;;;;6.13;1.80;;;;;;;1.97;100.00;102220.31;5009007;28;20209;-70
2022/04/16 01:48:49;;;;;;;3.90;1.70;;;;;;;1.94;100.00;102232.19;5014854;28;20196;-70
2022/04/16 01:51:17;;;;;;;5.00;2.17;;;;;;;1.89;100.00;102232.88;5014946;28;20202;-72
2022/04/16 01:53:44;;;;;;;5.60;1.93;;;;;;;1.89;100.00;102232.88;5009437;28;20226;-72
2022/04/16 01:56:11;;;;;;;4.77;1.77;;;;;;;1.85;100.00;102238.75;5008771;28;20684;-70
2022/04/16 01:58:38;;;;;;;2.87;1.80;;;;;;;1.89;100.00;102240.59;5008284;28;20753;-70
2022/04/16 02:01:05;;;;;;;3.40;1.87;;;;;;;1.87;100.00;102236.22;5009287;28;20203;-70
2022/04/16 02:03:33;;;;;;;3.53;1.57;;;;;;;1.91;100.00;102239.78;5009898;28;20240;-72
2022/04/16 02:05:59;;;;;;;3.83;1.93;;;;;;;1.87;100.00;102243.94;5006783;28;20230;-70
2022/04/16 02:08:26;;;;;;;4.07;1.93;;;;;;;1.84;100.00;102241.25;5008577;28;20541;-71
2022/04/16 02:10:53;;;;;;;4.47;1.90;;;;;;;1.79;100.00;102250.50;5006307;28;20216;-70
2022/04/16 02:13:19;;;;;;;4.83;1.90;;;;;;;1.74;100.00;102259.75;5008704;28;20632;-70
2022/04/16 02:15:47;;;;;;;4.03;2.30;;;;;;;1.73;100.00;102256.31;5005119;28;20690;-70
2022/04/16 02:18:13;;;;;;;3.80;2.20;;;;;;;1.70;100.00;102257.06;5001492;28;20205;-70
2022/04/16 02:20:43;;;;;;;6.13;2.30;;;;;;;1.66;100.00;102250.06;5003490;28;20205;-71
2022/04/16 02:23:10;;;;;;;7.57;2.23;;;;;;;1.66;100.00;102256.91;5008011;28;20219;-70
2022/04/16 02:25:40;;;;;;;6.63;2.47;;;;;;;1.66;100.00;102251.78;5008796;28;20275;-71
2022/04/16 02:28:07;;;;;;;4.57;2.30;;;;;;;1.63;100.00;102259.38;5010757;28;20596;-71
2022/04/16 02:30:33;;;;;;;5.97;2.47;;;;;;;1.56;100.00;102262.53;5008139;28;20203;-71
2022/04/16 02:33:01;;;;;;;6.13;2.30;;;;;;;1.57;100.00;102259.16;5007593;28;20227;-70
2022/04/16 02:35:28;;;;;;;4.27;2.27;;;;;;;1.51;100.00;102268.38;5008082;28;20282;-70
2022/04/16 02:37:55;;;;;;;3.67;2.37;;;;;;;1.50;99.79;102276.03;5007700;28;20235;-70
2022/04/16 02:40:21;;;;;;;3.50;2.50;;;;;;;1.51;100.00;102277.78;5008369;28;20200;-70
2022/04/16 02:42:47;;;;;;;2.73;1.77;;;;;;;1.52;100.00;102277.84;5007558;28;20216;-71
2022/04/16 02:48:00;;;;;;;3.93;1.77;;;;;;;1.47;100.00;102278.50;5006596;28;20243;-69
2022/04/16 02:50:28;;;;;;;2.40;1.53;;;;;;;1.42;98.77;102287.72;5012081;28;20205;-71
2022/04/16 02:52:55;;;;;;;2.20;1.73;;;;;;;1.36;97.55;102290.94;5014883;28;20241;-70
2022/04/16 02:55:22;;;;;;;2.80;1.50;;;;;;;1.33;97.37;102301.09;5011675;28;20204;-70
2022/04/16 02:57:49;;;;;;;2.40;1.60;;;;;;;1.32;97.25;102309.63;5010950;28;20192;-70
2022/04/16 03:00:16;;;;;;;4.67;1.57;;;;;;;1.30;96.82;102309.56;5012184;28;20254;-71
2022/04/16 03:02:43;;;;;;;3.07;1.40;;;;;;;1.28;96.79;102312.88;5008003;28;20238;-70
2022/04/16 03:05:11;;;;;;;3.33;1.90;;;;;;;1.26;97.09;102309.38;5012521;28;20190;-70
2022/04/16 03:07:38;;;;;;;5.93;1.77;;;;;;;1.24;96.76;102311.88;5008535;28;20227;-70
2022/04/16 03:10:08;;;;;;;3.10;1.43;;;;;;;1.19;96.11;102315.09;5007678;28;20701;-70
2022/04/16 03:12:41;;;;;;;4.23;1.87;;;;;;;1.14;95.18;102314.91;5019907;28;20559;-72
2022/04/16 03:17:54;;;;;;;3.27;1.20;;;;;;;1.16;96.55;102332.97;5007684;28;20264;-71
2022/04/16 03:20:22;;;;;;;2.37;1.67;;;;;;;1.17;96.82;102327.88;5006609;28;20734;-70
2022/04/16 03:22:48;;;;;;;2.43;1.57;;;;;;;1.15;96.76;102316.69;5008257;28;20709;-70
2022/04/16 03:25:15;;;;;;;5.20;2.27;;;;;;;1.15;96.80;102334.66;5004630;28;20272;-69
2022/04/16 03:27:41;;;;;;;2.57;1.90;;;;;;;1.18;97.61;102331.31;5004573;28;20206;-72
2022/04/16 03:30:09;;;;;;;2.93;1.90;;;;;;;1.15;97.56;102337.22;5007768;28;20197;-71
2022/04/16 03:32:38;;;;;;;2.03;1.80;;;;;;;1.17;96.90;102339.88;5007387;28;20215;-71
2022/04/16 03:35:06;;;;;;;2.10;1.60;;;;;;;1.16;97.45;102348.38;5008065;28;20223;-70
2022/04/16 03:37:33;;;;;;;3.73;1.73;;;;;;;1.15;97.26;102350.06;5006598;28;20584;-70
2022/04/16 03:40:00;;;;;;;3.70;1.80;;;;;;;1.11;96.99;102346.50;5016467;28;20199;-70
2022/04/16 03:42:26;;;;;;;5.23;2.20;;;;;;;1.12;96.03;102355.09;5013330;28;20201;-70
2022/04/16 03:44:52;;;;;;;2.00;1.80;;;;;;;1.14;96.60;102350.88;5015179;28;20750;-70
2022/04/16 03:47:19;;;;;;;1.97;1.77;;;;;;;1.13;96.79;102350.00;5016677;28;20221;-71
2022/04/16 03:49:45;;;;;;;3.20;1.90;;;;;;;1.15;97.07;102352.66;5010551;28;20214;-70
2022/04/16 03:52:11;;;;;;;4.10;1.80;;;;;;;1.13;97.01;102360.28;5013770;28;20223;-71
2022/04/16 04:00:08;;;;;;;4.60;1.57;;;;;;;1.16;97.24;102358.66;5011264;28;20189;-71
2022/04/16 04:02:38;;;;;;;1.93;1.63;;;;;;;1.19;98.27;102351.94;5016403;28;20199;-70
2022/04/16 04:05:06;;;;;;;4.23;1.70;;;;;;;1.19;98.10;102353.66;4976790;23;20240;-73
2022/04/16 04:07:32;;;;;;;2.03;1.60;;;;;;;1.18;97.10;102359.59;4941852;29;20226;-73
2022/04/16 04:10:00;;;;;;;2.47;1.67;;;;;;;1.19;96.82;102372.50;4940543;29;20677;-73
2022/04/16 04:12:27;;;;;;;3.73;1.60;;;;;;;1.20;97.07;102371.69;4941685;29;20191;-73
2022/04/16 04:14:54;;;;;;;3.70;1.93;;;;;;;1.23;97.50;102368.34;4954825;28;20765;-73
2022/04/16 04:17:21;;;;;;;2.70;1.50;;;;;;;1.25;98.66;102370.19;4953842;29;20831;-73
2022/04/16 04:19:48;;;;;;;4.20;1.80;;;;;;;1.24;97.48;102376.13;4953621;29;20236;-72
2022/04/16 04:22:16;;;;;;;4.53;1.80;;;;;;;1.26;97.62;102381.34;4954223;28;20643;-73
2022/04/16 04:24:45;;;;;;;2.03;1.50;;;;;;;1.22;97.37;102382.91;4953244;28;20600;-73
2022/04/16 04:27:13;;;;;;;3.60;1.50;;;;;;;1.23;97.34;102376.97;4953800;29;20261;-73
2022/04/16 04:29:41;;;;;;;2.93;1.33;;;;;;;1.24;97.83;102388.13;4953553;28;20291;-73
2022/04/16 04:32:08;;;;;;;2.67;1.50;;;;;;;1.25;97.68;102383.03;4953375;29;20586;-72
2022/04/16 04:34:35;;;;;;;2.63;1.80;;;;;;;1.25;97.57;102390.75;4953029;28;20261;-73
2022/04/16 04:37:01;;;;;;;3.40;1.70;;;;;;;1.23;98.15;102396.63;4950463;28;20257;-73
2022/04/16 04:39:28;;;;;;;4.97;2.10;;;;;;;1.19;98.10;102400.75;4943764;29;20571;-73
2022/04/16 04:41:55;;;;;;;3.40;2.00;;;;;;;1.19;98.30;102405.03;4953595;29;20198;-73
2022/04/16 04:44:22;;;;;;;4.80;2.13;;;;;;;1.18;99.17;102410.97;4952685;28;20331;-73
2022/04/16 04:46:49;;;;;;;6.17;2.30;;;;;;;1.16;98.81;102407.47;4949429;28;20293;-73
2022/04/16 04:49:15;;;;;;;3.93;2.20;;;;;;;1.16;100.00;102410.03;4953602;29;20214;-73
2022/04/16 04:51:42;;;;;;;4.73;2.10;;;;;;;1.08;99.66;102415.75;4953523;28;20224;-72
2022/04/16 04:54:09;;;;;;;4.63;2.40;;;;;;;1.06;100.00;102426.78;4953411;28;20242;-73
2022/04/16 04:56:35;;;;;;;6.23;2.70;;;;;;;1.04;100.00;102424.16;4938798;29;20210;-73
2022/04/16 04:59:02;;;;;;;2.03;1.90;;;;;;;1.01;100.00;102430.84;4948921;29;20207;-73
2022/04/16 05:01:30;;;;;;;2.47;2.10;;;;;;;1.03;100.00;102418.94;4954090;28;20212;-73
2022/04/16 05:03:58;;;;;;;3.30;2.40;;;;;;;1.05;100.00;102428.44;4946337;28;20235;-73
2022/04/16 05:06:24;;;;;;;6.87;2.70;;;;;;;1.04;100.00;102430.94;4970507;28;20684;-73
2022/04/16 05:08:51;;;;;;;2.67;2.40;;;;;;;1.04;100.00;102424.16;4953774;29;20224;-73
2022/04/16 05:11:17;;;;;;;2.90;2.60;;;;;;;1.05;100.00;102432.72;4954473;28;20200;-73
2022/04/16 05:13:44;;;;;;;3.40;2.23;;;;;;;1.05;100.00;102437.84;4974896;29;20206;-72
2022/04/16 05:16:12;;;;;;;3.37;2.27;;;;;;;1.07;100.00;102434.56;4970131;28;20273;-73
2022/04/16 05:18:40;;;;;;;5.67;2.73;;;;;;;1.08;100.00;102432.84;4972811;29;20208;-72
2022/04/16 05:21:07;;;;;;;4.50;2.30;;;;;;;1.09;100.00;102442.31;4963509;29;20205;-73
2022/04/16 05:23:35;;;;;;;4.00;1.80;;;;;;;1.08;100.00;102444.00;4963205;28;20222;-73
2022/04/16 05:26:02;;;;;;;5.70;2.40;;;;;;;1.13;100.00;102449.34;4965277;29;20206;-72
2022/04/16 05:28:28;;;;;;;6.43;1.83;;;;;;;1.19;100.00;102446.16;4965329;29;20228;-73
2022/04/16 05:30:58;;;;;;;5.43;2.30;;;;;;;1.23;100.00;102450.59;4965133;29;20234;-72
2022/04/16 05:36:11;;;;;;;2.33;1.80;;;;;;;1.37;100.00;102457.16;4970570;29;20206;-73
2022/04/16 05:38:37;;;;;;;3.77;1.90;;;;;;;1.41;100.00;102463.34;4955772;29;20202;-73
2022/04/16 05:41:03;;;;;;;3.67;1.93;;;;;;;1.42;100.00;102470.22;4954154;29;20199;-73
2022/04/16 05:43:30;;;;;;;2.10;1.60;;;;;;;1.49;100.00;102470.53;4952314;28;20230;-73
2022/04/16 05:45:56;;;;;;;3.33;1.70;;;;;;;1.48;99.88;102473.06;4950736;29;20767;-73
2022/04/16 05:48:23;;;;;;;2.40;1.67;;;;;;;1.52;99.70;102486.09;4952792;29;20227;-74
2022/04/16 05:50:49;;;;;;;3.43;1.57;;;;;;;1.52;99.15;102485.22;4954332;29;20206;-72
2022/04/16 05:53:18;;;;;;;4.33;2.03;;;;;;;1.61;100.00;102479.56;4961514;28;20203;-73
2022/04/16 05:55:47;;;;;;;3.57;2.07;;;;;;;1.74;100.00;102484.38;4953485;28;20202;-73
2022/04/16 05:58:15;;;;;;;2.83;1.70;;;;;;;1.74;98.53;102488.63;4952583;29;20206;-73
2022/04/16 06:00:41;;;;;;;4.37;1.60;;;;;;;1.73;97.99;102500.63;4938974;29;20205;-73
2022/04/16 06:03:08;;;;;;;2.97;1.47;;;;;;;1.75;98.13;102492.97;4947589;28;20722;-73
2022/04/16 06:05:35;;;;;;;2.43;1.40;;;;;;;1.79;97.81;102493.16;4956441;28;20210;-73
2022/04/16 06:08:01;;;;;;;2.83;1.40;;;;;;;1.91;97.21;102495.34;4957293;28;20221;-73
2022/04/16 06:10:29;;;;;;;1.73;1.30;;;;;;;2.06;97.19;102479.63;4951520;28;20881;-73
2022/04/16 06:12:56;;;;;;;2.50;1.57;;;;;;;2.17;96.04;102493.78;4951926;29;20278;-73
2022/04/16 06:15:22;;;;;;;5.03;1.60;;;;;;;2.33;94.88;102491.78;4951984;28;20222;-73
2022/04/16 06:17:49;;;;;;;3.37;1.50;;;;;;;2.47;94.96;102483.75;4951448;28;20242;-74
2022/04/16 06:20:15;;;;;;;3.60;1.40;;;;;;;2.50;93.19;102485.56;4952100;29;20199;-73
2022/04/16 06:22:42;;;;;;;1.30;1.13;;;;;;;2.55;94.08;102478.91;4952043;29;20206;-73
2022/04/16 06:25:09;;;;;;;2.80;1.40;;;;;;;2.62;93.84;102480.88;4951633;28;20230;-73
2022/04/16 06:27:39;;;;;;;3.13;1.50;;;;;;;2.70;92.69;102480.25;4951875;29;20241;-73
2022/04/16 06:30:07;;;;;;;3.80;1.20;;;;;;;2.69;91.44;102483.66;4945603;29;20262;-74
2022/04/16 06:32:34;;;;;;;3.33;1.60;;;;;;;2.73;91.67;102493.25;4950214;29;20210;-73
2022/04/16 06:35:01;;;;;;;2.23;1.43;;;;;;;2.81;92.09;102490.16;4958036;28;20880;-73
2022/04/16 06:37:28;;;;;;;4.57;2.40;;;;;;;2.90;90.49;102496.41;4953322;28;20206;-74
2022/04/16 06:39:55;;;;;;;2.60;1.30;;;;;;;2.91;89.52;102500.75;4949094;29;20209;-73
2022/04/16 06:42:21;;;;;;;3.03;1.47;;;;;;;2.90;88.94;102505.03;4951513;29;20211;-73
2022/04/16 06:44:49;;;;;;;3.63;1.30;;;;;;;2.97;89.15;102506.13;4951131;28;20227;-73
2022/04/16 06:47:15;;;;;;;3.43;1.23;;;;;;;2.96;88.15;102518.13;4951540;28;20194;-73
2022/04/16 06:49:41;;;;;;;3.53;1.23;;;;;;;3.02;87.95;102517.47;4951483;29;20202;-74
2022/04/16 06:52:08;;;;;;;2.43;1.20;;;;;;;3.10;87.59;102523.78;4951440;29;20261;-73
2022/04/16 06:54:34;;;;;;;4.77;1.60;;;;;;;3.11;87.75;102515.22;4951439;28;20646;-76
2022/04/16 06:57:01;;;;;;;4.40;1.60;;;;;;;3.23;87.86;102525.94;4951016;29;20206;-74
2022/04/16 06:59:27;;;;;;;4.93;1.50;;;;;;;3.28;86.31;102528.69;4951446;29;20202;-74
2022/04/16 07:01:55;;;;;;;2.03;1.20;;;;;;;3.27;86.35;102526.91;4951263;28;20218;-73
2022/04/16 07:04:21;;;;;;;1.90;1.00;;;;;;;3.34;86.09;102522.84;4950447;28;20245;-73
2022/04/16 07:06:48;;;;;;;2.13;1.17;;;;;;;3.46;85.54;102527.56;4950981;29;20210;-73
2022/04/16 07:09:14;;;;;;;2.37;1.17;;;;;;;3.68;85.13;102534.31;4950893;29;20585;-73
2022/04/16 07:11:41;;;;;;;1.87;1.20;;;;;;;3.74;84.27;102535.38;4944442;29;20206;-73
2022/04/16 07:14:08;;;;;;;1.87;1.17;;;;;;;3.90;84.58;102530.72;4945276;28;20230;-74
2022/04/16 07:16:34;;;;;;;4.30;1.80;;;;;;;4.06;83.09;102534.66;4950929;29;20221;-74
2022/04/16 07:19:02;;;;;;;2.57;1.43;;;;;;;4.07;82.57;102536.41;4951025;29;20575;-73
2022/04/16 07:21:28;;;;;;;1.67;1.37;;;;;;;3.96;81.97;102541.25;4949652;28;20631;-74
2022/04/16 07:23:54;;;;;;;2.23;1.27;;;;;;;3.86;82.26;102550.38;4949523;28;20237;-74
2022/04/16 07:26:21;;;;;;;1.93;1.17;;;;;;;3.86;82.50;102544.34;4949837;29;20691;-73
2022/04/16 07:28:47;;;;;;;2.60;1.33;;;;;;;3.87;82.11;102551.25;4949985;28;20221;-74
2022/04/16 07:31:13;;;;;;;3.73;1.30;;;;;;;3.98;82.29;102545.63;4952772;28;20199;-74
2022/04/16 07:33:40;;;;;;;2.53;1.37;;;;;;;4.01;81.44;102544.84;4953454;28;20246;-73
2022/04/16 07:36:08;;;;;;;2.70;1.43;;;;;;;4.11;81.16;102543.41;4956685;28;20206;-74
2022/04/16 07:38:35;;;;;;;3.40;1.30;;;;;;;4.31;81.67;102557.84;4953970;28;20207;-74
2022/04/16 07:41:02;;;;;;;2.27;1.10;;;;;;;4.27;80.05;102550.81;4951896;28;20663;-73
2022/04/16 07:43:29;;;;;;;2.63;1.30;;;;;;;4.37;79.93;102557.13;4950866;28;20313;-74
2022/04/16 07:45:55;;;;;;;3.40;1.00;;;;;;;4.42;78.49;102560.75;4953042;29;20211;-74
2022/04/16 07:48:22;;;;;;;1.97;1.10;;;;;;;4.34;77.82;102562.19;4953528;28;20245;-74
2022/04/16 07:50:48;;;;;;;3.27;1.40;;;;;;;4.62;77.92;102550.97;4954084;28;20571;-74
2022/04/16 07:53:16;;;;;;;1.97;1.10;;;;;;;4.86;76.40;102557.72;4952615;28;20199;-73
2022/04/16 07:55:42;;;;;;;2.13;1.30;;;;;;;5.12;78.65;102558.44;4951390;28;20671;-74
2022/04/16 07:58:09;;;;;;;2.40;1.10;;;;;;;5.02;75.72;102567.63;4953194;29;20194;-74
2022/04/16 08:00:35;;;;;;;2.30;1.40;;;;;;;4.89;76.52;102562.94;4953588;28;21263;-73
2022/04/16 08:03:02;;;;;;;2.50;1.20;;;;;;;4.72;75.65;102567.66;4953558;28;20588;-73
2022/04/16 08:05:28;;;;;;;1.60;1.20;;;;;;;4.60;75.40;102563.00;4955455;28;20638;-73
2022/04/16 08:07:54;;;;;;;4.63;1.50;;;;;;;4.66;76.61;102559.69;4956753;28;20219;-75
2022/04/16 08:10:22;;;;;;;2.13;1.30;;;;;;;4.80;75.94;102563.59;4950458;28;20207;-74
2022/04/16 08:12:49;;;;;;;1.93;1.40;;;;;;;4.78;75.64;102565.22;4953303;29;20237;-73
2022/04/16 08:15:15;;;;;;;2.80;1.40;;;;;;;4.85;76.75;102554.22;4951850;28;20245;-75
2022/04/16 08:17:41;;;;;;;2.13;1.60;;;;;;;5.03;74.86;102553.88;4966264;28;20533;-75
2022/04/16 08:20:09;;;;;;;3.17;1.80;;;;;;;5.22;75.55;102556.97;4953246;28;20202;-74
2022/04/16 08:22:35;;;;;;;2.80;1.27;;;;;;;5.28;75.58;102563.19;4952215;28;20243;-74
2022/04/16 08:27:45;;;;;;;3.07;1.67;;;;;;;5.42;74.88;102568.72;4940362;28;20205;-74
2022/04/16 08:30:13;;;;;;;1.87;1.50;;;;;;;5.36;73.33;102572.84;4950761;29;20581;-74
2022/04/16 08:32:41;;;;;;;3.00;1.60;;;;;;;5.28;74.26;102570.06;4949149;29;20202;-73
2022/04/16 08:35:09;;;;;;;1.50;1.40;;;;;;;5.40;74.16;102567.81;4953026;28;20274;-74
2022/04/16 08:37:35;;;;;;;2.97;1.30;;;;;;;5.38;72.24;102587.59;4950766;28;20199;-76
2022/04/16 08:40:02;;;;;;;2.37;1.40;;;;;;;5.48;74.77;102568.00;4948673;29;20213;-73
2022/04/16 08:42:28;;;;;;;2.00;1.30;;;;;;;5.32;71.48;102577.06;4949569;28;20211;-76
2022/04/16 08:44:57;;;;;;;4.43;1.33;;;;;;;5.37;74.65;102567.72;4951198;28;20226;-74
2022/04/16 08:47:24;;;;;;;4.20;1.80;;;;;;;5.59;74.21;102568.25;4949810;29;20197;-73
2022/04/16 08:49:51;;;;;;;1.77;1.20;;;;;;;5.63;69.61;102576.16;4949852;29;20892;-74
2022/04/16 08:52:19;;;;;;;1.77;1.10;;;;;;;5.64;69.58;102577.03;4950411;28;20577;-74
2022/04/16 08:54:45;;;;;;;2.30;1.60;;;;;;;5.75;70.29;102572.13;4950045;29;20609;-74
2022/04/16 08:57:12;;;;;;;3.57;1.30;;;;;;;6.01;71.54;102581.41;4950256;29;20214;-74
2022/04/16 08:59:38;;;;;;;1.57;1.33;;;;;;;6.17;72.34;102576.59;4950304;29;20695;-74
2022/04/16 09:02:06;;;;;;;1.37;1.13;;;;;;;6.33;72.61;102572.66;4948478;28;20210;-74
2022/04/16 09:04:33;;;;;;;2.37;1.47;;;;;;;6.47;69.54;102578.16;4944876;29;20617;-73
2022/04/16 09:07:01;;;;;;;2.10;1.27;;;;;;;6.29;68.89;102582.06;4957081;28;20206;-76
2022/04/16 09:09:28;;;;;;;3.63;1.40;;;;;;;6.39;70.35;102584.03;4951276;28;20222;-73
2022/04/16 09:11:56;;;;;;;3.53;1.50;;;;;;;6.29;68.81;102586.38;4950759;28;20596;-75
2022/04/16 09:14:34;;;;;;;1.97;1.30;;;;;;;6.30;71.65;102580.34;4950768;28;20218;-74
2022/04/16 09:17:00;;;;;;;2.10;1.53;;;;;;;6.56;70.23;102581.81;4954519;28;20206;-73
2022/04/16 09:19:30;;;;;;;1.20;1.10;;;;;;;6.62;69.16;102583.66;4948552;28;20195;-74
2022/04/16 09:21:58;;;;;;;3.47;1.53;;;;;;;6.51;68.48;102596.41;4949916;28;20672;-76
2022/04/16 09:24:24;;;;;;;3.47;1.63;;;;;;;6.63;67.58;102595.78;4950612;28;20245;-74
2022/04/16 09:26:51;;;;;;;3.03;1.87;;;;;;;6.72;67.40;102589.91;4949106;28;20213;-74
2022/04/16 09:29:18;;;;;;;2.67;1.50;;;;;;;6.86;66.56;102587.59;4950724;28;20219;-74
2022/04/16 09:31:47;;;;;;;3.77;1.83;;;;;;;6.97;69.90;102584.41;4951759;28;20257;-74
2022/04/16 09:34:18;;;;;;;3.47;1.60;;;;;;;6.94;64.96;102591.25;4950753;28;20249;-74
2022/04/16 09:36:47;;;;;;;4.67;2.30;;;;;;;6.78;63.57;102601.28;4951790;28;20291;-74
2022/04/16 09:39:14;;;;;;;2.87;1.60;;;;;;;6.80;62.79;102594.41;4950025;28;20202;-74
2022/04/16 09:41:44;;;;;;;1.87;1.50;;;;;;;6.76;63.32;102584.84;4952420;28;20222;-73
2022/04/16 09:44:18;;;;;;;8.63;1.93;;;;;;;6.98;63.04;102583.56;4954432;28;20747;-75
2022/04/16 09:46:46;;;;;;;1.97;1.40;;;;;;;7.13;64.17;102577.78;4950348;28;20214;-75
2022/04/16 09:49:14;;;;;;;1.63;1.50;;;;;;;7.20;63.51;102584.84;4948388;28;20218;-74
2022/04/16 09:51:43;;;;;;;2.20;1.63;;;;;;;7.19;65.38;102577.03;4951298;28;20207;-75
2022/04/16 09:54:12;;;;;;;2.17;1.57;;;;;;;7.34;67.60;102574.72;4949040;28;20225;-74
2022/04/16 09:56:40;;;;;;;3.30;1.60;;;;;;;7.34;63.64;102592.03;4948452;29;20194;-74
2022/04/16 09:59:09;;;;;;;2.03;1.50;;;;;;;7.13;61.46;102587.31;4950241;28;20229;-75
2022/04/16 10:01:38;;;;;;;2.17;1.57;;;;;;;7.21;64.75;102585.72;4948690;29;21832;-74
2022/04/16 10:04:07;;;;;;;3.33;1.30;;;;;;;7.22;62.67;102595.25;4950291;28;20237;-74
2022/04/16 10:06:34;;;;;;;2.63;1.40;;;;;;;7.15;62.45;102594.25;4952320;28;20237;-74
2022/04/16 10:09:13;;;;;;;2.13;1.70;;;;;;;7.22;61.60;102600.44;4949796;28;20600;-74
2022/04/16 10:14:34;;;;;;;2.07;1.20;;;;;;;7.38;61.24;102602.47;4949812;28;20215;-74
2022/04/16 10:17:08;;;;;;;2.23;1.60;;;;;;;7.68;61.34;102603.88;4950017;29;20213;-74
2022/04/16 10:19:39;;;;;;;3.40;1.67;;;;;;;7.94;59.77;102606.06;4949876;29;20256;-74
2022/04/16 10:22:05;;;;;;;4.57;2.80;;;;;;;8.01;57.84;102623.47;4950466;29;20203;-73
2022/04/16 10:24:32;;;;;;;1.90;1.67;;;;;;;8.11;58.61;102615.00;4948848;28;20230;-73
2022/04/16 10:27:07;;;;;;;3.43;1.50;;;;;;;8.24;61.50;102600.44;4949706;28;20199;-74
2022/04/16 10:29:38;;;;;;;2.23;1.50;;;;;;;8.22;59.94;102594.38;4955226;28;20337;-74
2022/04/16 10:32:15;;;;;;;4.03;1.50;;;;;;;8.28;59.23;102607.44;4949012;28;20259;-73
2022/04/16 10:34:42;;;;;;;2.27;1.50;;;;;;;8.08;56.71;102611.47;4949065;29;20277;-74
2022/04/16 10:37:20;;;;;;;2.13;1.33;;;;;;;7.94;55.67;102619.91;4949791;28;20249;-74
2022/04/16 10:39:47;;;;;;;2.97;1.50;;;;;;;7.97;58.31;102598.31;4948549;29;20230;-74
2022/04/16 10:42:15;;;;;;;1.33;1.23;;;;;;;8.19;58.17;102596.91;4942473;28;20208;-74
2022/04/16 10:44:46;;;;;;;1.70;1.30;;;;;;;8.29;56.41;102604.00;4946995;28;20691;-74
2022/04/16 10:47:14;;;;;;;3.03;1.53;;;;;;;8.36;58.78;102597.16;4950378;28;20206;-73
2022/04/16 10:49:42;;;;;;;3.30;1.40;;;;;;;8.38;56.16;102612.78;4948910;28;20218;-74
2022/04/16 10:52:19;;;;;;;1.60;1.50;;;;;;;8.22;56.25;102606.50;4943983;28;20217;-74
2022/04/16 10:54:47;;;;;;;3.43;1.80;;;;;;;8.04;55.47;102605.34;4949448;28;20226;-74
2022/04/16 10:57:22;;;;;;;2.03;1.80;;;;;;;8.29;57.92;102595.34;4951866;28;20200;-74
2022/04/16 10:59:48;;;;;;;1.90;1.40;;;;;;;8.41;56.36;102611.13;4950296;28;20207;-74
2022/04/16 11:02:19;;;;;;;2.00;1.50;;;;;;;8.37;53.86;102601.50;4952499;28;20203;-73
2022/04/16 11:04:56;;;;;;;2.50;2.00;;;;;;;8.30;53.41;102602.25;4948536;28;20246;-74
2022/04/16 11:07:23;;;;;;;2.53;1.77;;;;;;;8.44;56.78;102587.81;4952591;28;20676;-74
2022/04/16 11:09:52;;;;;;;2.70;1.20;;;;;;;8.55;56.47;102602.66;4953149;29;20688;-73
2022/04/16 11:12:20;;;;;;;3.07;1.37;;;;;;;8.60;53.71;102601.00;4950504;28;20200;-74
2022/04/16 11:14:49;;;;;;;1.87;1.17;;;;;;;8.49;54.64;102601.72;4949924;28;20232;-74
2022/04/16 11:17:16;;;;;;;1.80;1.60;;;;;;;8.39;52.02;102614.53;4950903;28;20206;-73
2022/04/16 11:19:44;;;;;;;1.80;1.47;;;;;;;8.34;53.67;102599.75;4951705;28;20216;-74
2022/04/16 11:22:11;;;;;;;1.40;1.20;;;;;;;8.55;54.12;102608.75;4952398;28;20208;-74
2022/04/16 11:24:37;;;;;;;3.53;1.40;;;;;;;8.50;55.68;102600.00;4952288;29;20302;-74
2022/04/16 11:35:23;;;;;;;1.87;1.27;;;;;;;8.89;51.61;102590.97;4947397;28;20245;-73
2022/04/16 11:37:54;;;;;;;1.73;1.13;;;;;;;8.98;52.48;102588.47;4953302;28;20215;-74
2022/04/16 11:40:20;;;;;;;2.80;2.40;;;;;;;9.08;51.06;102597.28;4951495;28;20796;-73
2022/04/16 11:42:46;;;;;;;2.13;1.10;;;;;;;9.11;53.13;102579.06;4958251;28;20563;-72
2022/04/16 11:45:16;;;;;;;2.80;1.40;;;;;;;9.05;53.39;102597.22;4956434;28;20220;-73
2022/04/16 11:47:43;;;;;;;2.50;1.20;;;;;;;8.91;50.91;102603.13;4953557;28;20217;-73
2022/04/16 11:50:13;;;;;;;1.67;1.50;;;;;;;9.04;51.70;102598.06;4950894;28;20228;-73
2022/04/16 11:52:39;;;;;;;1.60;1.50;;;;;;;9.17;53.26;102588.69;4950076;28;20205;-73
2022/04/16 11:55:10;;;;;;;2.43;1.50;;;;;;;9.33;51.58;102597.53;4952370;28;20688;-71
2022/04/16 11:57:37;;;;;;;1.27;1.03;;;;;;;9.43;51.95;102594.19;4952119;28;20213;-73
2022/04/16 12:00:06;;;;;;;1.97;1.30;;;;;;;9.35;50.74;102586.28;4950174;28;20202;-73